sensor_id;sensor_type;location;lat;lon;timestamp;pressure;altitude;pressure_sealevel;temperature;humidity
19672;BME280;9983;51.114;13.788;2023-04-26T00:01:23;99209.59;;;7.67;73.11
19672;BME280;9983;51.114;13.788;2023-04-26T00:06:26;99205.59;;;7.87;72.40
19672;BME280;9983;51.114;13.788;2023-04-26T00:11:26;99220.03;;;7.44;74.14
19672;BME280;9983;51.114;13.788;2023-04-26T00:16:27;99222.63;;;7.78;73.20
19672;BME280;9983;51.114;13.788;2023-04-26T00:21:27;99220.25;;;7.67;73.44
19672;BME280;9983;51.114;13.788;2023-04-26T00:26:27;99226.25;;;7.60;74.03
19672;BME280;9983;51.114;13.788;2023-04-26T00:31:29;99227.53;;;7.56;74.36
19672;BME280;9983;51.114;13.788;2023-04-26T00:36:29;99231.25;;;7.63;74.49
19672;BME280;9983;51.114;13.788;2023-04-26T00:41:31;99229.97;;;7.84;73.92
19672;BME280;9983;51.114;13.788;2023-04-26T00:46:31;99237.75;;;7.61;74.93
19672;BME280;9983;51.114;13.788;2023-04-26T00:51:31;99241.19;;;7.53;75.08
19672;BME280;9983;51.114;13.788;2023-04-26T00:56:32;99242.44;;;7.25;76.86
19672;BME280;9983;51.114;13.788;2023-04-26T01:01:33;99236.47;;;7.05;78.53
19672;BME280;9983;51.114;13.788;2023-04-26T01:06:34;99247.03;;;7.15;78.04
19672;BME280;9983;51.114;13.788;2023-04-26T01:11:37;99246.16;;;7.40;76.84
19672;BME280;9983;51.114;13.788;2023-04-26T01:16:37;99248.47;;;7.35;77.35
19672;BME280;9983;51.114;13.788;2023-04-26T01:21:39;99250.16;;;7.36;78.04
19672;BME280;9983;51.114;13.788;2023-04-26T01:26:41;99246.16;;;7.40;78.60
19672;BME280;9983;51.114;13.788;2023-04-26T01:31:47;99256.97;;;7.05;79.19
19672;BME280;9983;51.114;13.788;2023-04-26T01:36:48;99253.16;;;7.41;78.14
19672;BME280;9983;51.114;13.788;2023-04-26T01:41:48;99258.59;;;6.98;79.03
19672;BME280;9983;51.114;13.788;2023-04-26T01:46:48;99267.63;;;7.05;79.15
19672;BME280;9983;51.114;13.788;2023-04-26T01:51:49;99262.31;;;7.05;79.07
19672;BME280;9983;51.114;13.788;2023-04-26T01:56:49;99262.94;;;6.99;79.17
19672;BME280;9983;51.114;13.788;2023-04-26T02:01:49;99260.28;;;6.55;81.80
19672;BME280;9983;51.114;13.788;2023-04-26T02:06:50;99270.28;;;7.05;79.29
19672;BME280;9983;51.114;13.788;2023-04-26T02:11:50;99267.41;;;6.72;81.09
19672;BME280;9983;51.114;13.788;2023-04-26T02:16:50;99269.94;;;6.74;81.44
19672;BME280;9983;51.114;13.788;2023-04-26T02:21:53;99274.59;;;6.54;81.90
19672;BME280;9983;51.114;13.788;2023-04-26T02:26:53;99262.00;;;6.82;80.59
19672;BME280;9983;51.114;13.788;2023-04-26T02:31:53;99269.66;;;6.59;82.62
19672;BME280;9983;51.114;13.788;2023-04-26T02:36:53;99275.16;;;6.83;80.73
19672;BME280;9983;51.114;13.788;2023-04-26T02:41:54;99264.06;;;6.70;81.65
19672;BME280;9983;51.114;13.788;2023-04-26T02:46:54;99264.31;;;7.03;79.59
19672;BME280;9983;51.114;13.788;2023-04-26T02:51:54;99268.34;;;6.63;81.42
19672;BME280;9983;51.114;13.788;2023-04-26T02:56:55;99274.00;;;6.60;81.62
19672;BME280;9983;51.114;13.788;2023-04-26T03:01:57;99272.91;;;6.53;82.79
19672;BME280;9983;51.114;13.788;2023-04-26T03:06:57;99271.44;;;6.33;83.16
19672;BME280;9983;51.114;13.788;2023-04-26T03:11:57;99269.75;;;6.32;83.19
19672;BME280;9983;51.114;13.788;2023-04-26T03:16:58;99273.25;;;6.50;82.71
19672;BME280;9983;51.114;13.788;2023-04-26T03:21:59;99273.94;;;6.34;84.09
19672;BME280;9983;51.114;13.788;2023-04-26T03:26:59;99282.22;;;6.49;82.38
19672;BME280;9983;51.114;13.788;2023-04-26T03:31:59;99291.66;;;6.26;83.95
19672;BME280;9983;51.114;13.788;2023-04-26T03:37:00;99284.81;;;6.05;84.41
19672;BME280;9983;51.114;13.788;2023-04-26T03:42:01;99277.50;;;6.07;84.78
19672;BME280;9983;51.114;13.788;2023-04-26T03:47:02;99300.66;;;5.70;86.74
19672;BME280;9983;51.114;13.788;2023-04-26T03:52:04;99287.66;;;5.94;85.92
19672;BME280;9983;51.114;13.788;2023-04-26T03:57:04;99304.41;;;6.04;84.51
19672;BME280;9983;51.114;13.788;2023-04-26T04:02:05;99304.13;;;6.07;84.14
19672;BME280;9983;51.114;13.788;2023-04-26T04:07:05;99310.94;;;5.92;84.13
19672;BME280;9983;51.114;13.788;2023-04-26T04:12:06;99310.94;;;5.92;84.93
19672;BME280;9983;51.114;13.788;2023-04-26T04:17:06;99312.03;;;5.99;83.69
19672;BME280;9983;51.114;13.788;2023-04-26T04:22:07;99309.28;;;5.91;84.27
19672;BME280;9983;51.114;13.788;2023-04-26T04:27:07;99313.69;;;6.00;83.51
19672;BME280;9983;51.114;13.788;2023-04-26T04:32:08;99317.63;;;5.96;83.35
19672;BME280;9983;51.114;13.788;2023-04-26T04:37:08;99319.47;;;6.14;82.46
19672;BME280;9983;51.114;13.788;2023-04-26T04:42:08;99320.44;;;5.95;83.14
19672;BME280;9983;51.114;13.788;2023-04-26T04:47:09;99317.75;;;6.22;82.53
19672;BME280;9983;51.114;13.788;2023-04-26T04:52:09;99323.28;;;6.29;80.91
19672;BME280;9983;51.114;13.788;2023-04-26T04:57:09;99333.69;;;5.77;82.03
19672;BME280;9983;51.114;13.788;2023-04-26T05:02:10;99341.19;;;5.91;82.47
19672;BME280;9983;51.114;13.788;2023-04-26T05:07:10;99343.69;;;6.38;80.64
19672;BME280;9983;51.114;13.788;2023-04-26T05:12:11;99340.16;;;6.20;80.73
19672;BME280;9983;51.114;13.788;2023-04-26T05:17:12;99358.53;;;5.95;81.90
19672;BME280;9983;51.114;13.788;2023-04-26T05:22:12;99350.91;;;5.73;83.43
19672;BME280;9983;51.114;13.788;2023-04-26T05:27:17;99352.81;;;6.18;81.65
19672;BME280;9983;51.114;13.788;2023-04-26T05:32:17;99358.47;;;6.05;81.23
19672;BME280;9983;51.114;13.788;2023-04-26T05:37:17;99362.47;;;5.91;82.45
19672;BME280;9983;51.114;13.788;2023-04-26T05:42:18;99361.94;;;6.33;82.35
19672;BME280;9983;51.114;13.788;2023-04-26T05:47:18;99374.28;;;6.06;82.18
19672;BME280;9983;51.114;13.788;2023-04-26T05:52:18;99378.09;;;6.49;80.11
19672;BME280;9983;51.114;13.788;2023-04-26T05:57:18;99386.72;;;6.16;82.50
19672;BME280;9983;51.114;13.788;2023-04-26T06:02:19;99378.63;;;6.53;80.41
19672;BME280;9983;51.114;13.788;2023-04-26T06:07:19;99379.63;;;6.69;79.32
19672;BME280;9983;51.114;13.788;2023-04-26T06:12:19;99382.25;;;6.87;78.23
19672;BME280;9983;51.114;13.788;2023-04-26T06:17:19;99383.09;;;6.88;77.99
19672;BME280;9983;51.114;13.788;2023-04-26T06:22:20;99387.84;;;6.94;76.21
19672;BME280;9983;51.114;13.788;2023-04-26T06:27:20;99376.25;;;7.03;76.43
19672;BME280;9983;51.114;13.788;2023-04-26T06:32:20;99382.19;;;6.61;77.37
19672;BME280;9983;51.114;13.788;2023-04-26T06:37:21;99391.03;;;6.79;76.96
19672;BME280;9983;51.114;13.788;2023-04-26T06:42:21;99386.53;;;6.98;76.64
19672;BME280;9983;51.114;13.788;2023-04-26T06:47:21;99390.19;;;7.40;73.60
19672;BME280;9983;51.114;13.788;2023-04-26T06:52:21;99391.56;;;7.44;72.59
19672;BME280;9983;51.114;13.788;2023-04-26T06:57:22;99401.13;;;7.89;70.23
19672;BME280;9983;51.114;13.788;2023-04-26T07:02:22;99399.69;;;7.17;72.07
19672;BME280;9983;51.114;13.788;2023-04-26T07:07:23;99399.50;;;7.36;71.39
19672;BME280;9983;51.114;13.788;2023-04-26T07:12:23;99398.75;;;7.78;67.88
19672;BME280;9983;51.114;13.788;2023-04-26T07:17:23;99411.19;;;7.95;66.37
19672;BME280;9983;51.114;13.788;2023-04-26T07:22:24;99409.47;;;7.34;67.83
19672;BME280;9983;51.114;13.788;2023-04-26T07:27:24;99418.09;;;7.80;66.98
19672;BME280;9983;51.114;13.788;2023-04-26T07:32:25;99403.44;;;7.84;64.86
19672;BME280;9983;51.114;13.788;2023-04-26T07:37:25;99412.06;;;8.54;63.52
19672;BME280;9983;51.114;13.788;2023-04-26T07:42:25;99416.59;;;8.11;64.08
19672;BME280;9983;51.114;13.788;2023-04-26T07:47:26;99411.56;;;8.08;63.08
19672;BME280;9983;51.114;13.788;2023-04-26T07:52:26;99410.47;;;8.85;60.94
19672;BME280;9983;51.114;13.788;2023-04-26T07:57:26;99399.44;;;9.53;60.49
19672;BME280;9983;51.114;13.788;2023-04-26T08:02:26;99408.38;;;8.38;58.44
19672;BME280;9983;51.114;13.788;2023-04-26T08:07:27;99402.91;;;8.56;59.23
19672;BME280;9983;51.114;13.788;2023-04-26T08:12:27;99402.56;;;8.51;58.54
19672;BME280;9983;51.114;13.788;2023-04-26T08:17:27;99407.25;;;8.15;58.29
19672;BME280;9983;51.114;13.788;2023-04-26T08:22:27;99423.09;;;8.51;57.70
19672;BME280;9983;51.114;13.788;2023-04-26T08:27:28;99414.13;;;8.68;56.89
19672;BME280;9983;51.114;13.788;2023-04-26T08:32:29;99410.44;;;9.66;54.51
19672;BME280;9983;51.114;13.788;2023-04-26T08:37:29;99424.53;;;9.03;55.23
19672;BME280;9983;51.114;13.788;2023-04-26T08:42:30;99421.34;;;9.00;54.60
19672;BME280;9983;51.114;13.788;2023-04-26T08:47:39;99428.00;;;8.80;53.19
19672;BME280;9983;51.114;13.788;2023-04-26T08:52:42;99421.19;;;8.85;54.10
19672;BME280;9983;51.114;13.788;2023-04-26T08:57:45;99418.50;;;8.93;55.77
19672;BME280;9983;51.114;13.788;2023-04-26T09:02:48;99415.13;;;8.75;56.05
19672;BME280;9983;51.114;13.788;2023-04-26T09:07:53;99411.81;;;9.38;55.70
19672;BME280;9983;51.114;13.788;2023-04-26T09:12:55;99416.16;;;9.47;49.86
19672;BME280;9983;51.114;13.788;2023-04-26T09:17:55;99415.28;;;9.63;49.95
19672;BME280;9983;51.114;13.788;2023-04-26T09:28:03;99432.22;;;9.14;51.53
19672;BME280;9983;51.114;13.788;2023-04-26T09:33:17;99415.16;;;9.24;50.56
19672;BME280;9983;51.114;13.788;2023-04-26T09:38:18;99415.00;;;10.05;47.83
19672;BME280;9983;51.114;13.788;2023-04-26T09:43:19;99416.31;;;10.25;45.73
19672;BME280;9983;51.114;13.788;2023-04-26T09:48:27;99415.81;;;10.21;45.80
19672;BME280;9983;51.114;13.788;2023-04-26T09:53:34;99417.03;;;10.03;44.46
19672;BME280;9983;51.114;13.788;2023-04-26T09:58:37;99425.97;;;10.34;40.73
19672;BME280;9983;51.114;13.788;2023-04-26T10:03:38;99419.38;;;10.53;40.70
19672;BME280;9983;51.114;13.788;2023-04-26T10:08:38;99425.38;;;10.08;42.67
19672;BME280;9983;51.114;13.788;2023-04-26T10:13:39;99419.16;;;10.62;43.33
19672;BME280;9983;51.114;13.788;2023-04-26T10:18:43;99418.00;;;10.10;44.64
19672;BME280;9983;51.114;13.788;2023-04-26T10:23:44;99415.63;;;10.15;44.95
19672;BME280;9983;51.114;13.788;2023-04-26T10:34:17;99425.72;;;10.05;44.72
19672;BME280;9983;51.114;13.788;2023-04-26T10:39:19;99410.19;;;11.38;39.85
19672;BME280;9983;51.114;13.788;2023-04-26T10:44:39;99419.41;;;11.21;41.20
19672;BME280;9983;51.114;13.788;2023-04-26T10:49:44;99420.56;;;10.73;42.13
19672;BME280;9983;51.114;13.788;2023-04-26T10:54:50;99424.56;;;10.46;41.04
19672;BME280;9983;51.114;13.788;2023-04-26T11:05:37;99420.38;;;12.25;39.39
19672;BME280;9983;51.114;13.788;2023-04-26T11:10:38;99415.13;;;11.64;41.31
19672;BME280;9983;51.114;13.788;2023-04-26T11:15:39;99411.63;;;10.81;43.76
19672;BME280;9983;51.114;13.788;2023-04-26T11:20:40;99419.53;;;10.51;44.67
19672;BME280;9983;51.114;13.788;2023-04-26T11:25:40;99419.16;;;11.08;43.06
19672;BME280;9983;51.114;13.788;2023-04-26T11:30:42;99420.75;;;10.72;43.20
19672;BME280;9983;51.114;13.788;2023-04-26T11:35:42;99416.03;;;10.96;43.87
19672;BME280;9983;51.114;13.788;2023-04-26T11:40:43;99417.59;;;11.36;42.85
19672;BME280;9983;51.114;13.788;2023-04-26T11:45:44;99424.31;;;11.32;42.76
19672;BME280;9983;51.114;13.788;2023-04-26T11:50:44;99412.56;;;11.33;42.81
19672;BME280;9983;51.114;13.788;2023-04-26T11:55:44;99424.78;;;11.21;42.23
19672;BME280;9983;51.114;13.788;2023-04-26T12:01:00;99436.75;;;11.11;43.33
19672;BME280;9983;51.114;13.788;2023-04-26T12:06:01;99438.28;;;10.51;42.77
19672;BME280;9983;51.114;13.788;2023-04-26T12:11:02;99434.47;;;11.22;42.08
19672;BME280;9983;51.114;13.788;2023-04-26T12:16:07;99441.31;;;11.48;42.09
19672;BME280;9983;51.114;13.788;2023-04-26T12:21:07;99439.50;;;11.63;40.14
19672;BME280;9983;51.114;13.788;2023-04-26T12:26:08;99433.66;;;12.11;37.65
19672;BME280;9983;51.114;13.788;2023-04-26T12:31:10;99429.38;;;12.02;37.56
19672;BME280;9983;51.114;13.788;2023-04-26T12:36:11;99440.06;;;11.73;39.07
19672;BME280;9983;51.114;13.788;2023-04-26T12:41:11;99441.41;;;11.77;39.01
19672;BME280;9983;51.114;13.788;2023-04-26T12:46:12;99433.09;;;12.01;39.96
19672;BME280;9983;51.114;13.788;2023-04-26T12:51:12;99424.78;;;11.73;39.52
19672;BME280;9983;51.114;13.788;2023-04-26T12:56:12;99426.97;;;12.07;40.27
19672;BME280;9983;51.114;13.788;2023-04-26T13:01:14;99416.06;;;13.38;37.49
19672;BME280;9983;51.114;13.788;2023-04-26T13:06:15;99427.94;;;14.40;34.94
19672;BME280;9983;51.114;13.788;2023-04-26T13:11:15;99426.91;;;14.41;34.96
19672;BME280;9983;51.114;13.788;2023-04-26T13:16:15;99425.69;;;15.11;33.97
19672;BME280;9983;51.114;13.788;2023-04-26T13:21:16;99427.56;;;16.23;32.08
19672;BME280;9983;51.114;13.788;2023-04-26T13:26:16;99425.31;;;15.28;34.25
19672;BME280;9983;51.114;13.788;2023-04-26T13:31:17;99428.22;;;15.46;33.44
19672;BME280;9983;51.114;13.788;2023-04-26T13:36:18;99432.00;;;15.71;33.34
19672;BME280;9983;51.114;13.788;2023-04-26T13:41:18;99431.84;;;13.97;35.99
19672;BME280;9983;51.114;13.788;2023-04-26T13:46:18;99434.19;;;12.72;37.62
19672;BME280;9983;51.114;13.788;2023-04-26T13:51:19;99437.78;;;12.14;38.12
19672;BME280;9983;51.114;13.788;2023-04-26T13:56:19;99441.66;;;12.55;38.07
19672;BME280;9983;51.114;13.788;2023-04-26T14:01:19;99437.75;;;12.94;37.80
19672;BME280;9983;51.114;13.788;2023-04-26T14:06:20;99444.72;;;13.24;36.15
19672;BME280;9983;51.114;13.788;2023-04-26T14:11:20;99434.25;;;13.85;35.73
19672;BME280;9983;51.114;13.788;2023-04-26T14:16:22;99435.31;;;15.86;32.64
19672;BME280;9983;51.114;13.788;2023-04-26T14:21:23;99457.66;;;14.13;35.29
19672;BME280;9983;51.114;13.788;2023-04-26T14:26:24;99454.38;;;12.47;36.97
19672;BME280;9983;51.114;13.788;2023-04-26T14:31:25;99462.44;;;12.32;37.94
19672;BME280;9983;51.114;13.788;2023-04-26T14:36:27;99458.81;;;11.81;38.62
19672;BME280;9983;51.114;13.788;2023-04-26T14:41:27;99452.47;;;11.74;40.32
19672;BME280;9983;51.114;13.788;2023-04-26T14:46:27;99452.72;;;12.46;39.58
19672;BME280;9983;51.114;13.788;2023-04-26T14:51:27;99459.31;;;11.62;40.70
19672;BME280;9983;51.114;13.788;2023-04-26T14:56:34;99460.69;;;12.25;39.82
19672;BME280;9983;51.114;13.788;2023-04-26T15:01:35;99466.34;;;11.63;39.85
19672;BME280;9983;51.114;13.788;2023-04-26T15:06:36;99449.31;;;12.73;39.27
19672;BME280;9983;51.114;13.788;2023-04-26T15:11:36;99457.25;;;12.16;38.63
19672;BME280;9983;51.114;13.788;2023-04-26T15:16:37;99455.00;;;13.00;38.44
19672;BME280;9983;51.114;13.788;2023-04-26T15:21:37;99453.72;;;12.30;38.60
19672;BME280;9983;51.114;13.788;2023-04-26T15:26:37;99443.59;;;12.47;39.79
19672;BME280;9983;51.114;13.788;2023-04-26T15:31:37;99448.34;;;12.45;40.51
19672;BME280;9983;51.114;13.788;2023-04-26T15:36:37;99458.47;;;12.13;40.15
19672;BME280;9983;51.114;13.788;2023-04-26T15:41:38;99459.59;;;12.34;40.13
19672;BME280;9983;51.114;13.788;2023-04-26T15:46:38;99459.38;;;11.91;40.62
19672;BME280;9983;51.114;13.788;2023-04-26T15:51:38;99466.59;;;11.30;41.65
19672;BME280;9983;51.114;13.788;2023-04-26T15:56:39;99473.88;;;10.99;41.88
19672;BME280;9983;51.114;13.788;2023-04-26T16:01:39;99473.69;;;10.78;41.20
19672;BME280;9983;51.114;13.788;2023-04-26T16:06:40;99453.72;;;11.49;40.51
19672;BME280;9983;51.114;13.788;2023-04-26T16:11:40;99464.31;;;10.74;41.92
19672;BME280;9983;51.114;13.788;2023-04-26T16:16:41;99465.97;;;10.75;42.25
19672;BME280;9983;51.114;13.788;2023-04-26T16:21:41;99456.50;;;11.78;41.06
19672;BME280;9983;51.114;13.788;2023-04-26T16:26:42;99460.47;;;11.45;42.35
19672;BME280;9983;51.114;13.788;2023-04-26T16:31:42;99457.53;;;10.86;43.48
19672;BME280;9983;51.114;13.788;2023-04-26T16:36:43;99454.38;;;11.05;43.42
19672;BME280;9983;51.114;13.788;2023-04-26T16:41:43;99458.59;;;10.77;44.35
19672;BME280;9983;51.114;13.788;2023-04-26T16:46:43;99467.56;;;10.92;44.09
19672;BME280;9983;51.114;13.788;2023-04-26T16:51:43;99471.44;;;10.58;42.81
19672;BME280;9983;51.114;13.788;2023-04-26T16:56:50;99472.31;;;10.82;42.64
19672;BME280;9983;51.114;13.788;2023-04-26T17:01:51;99475.81;;;10.51;42.64
19672;BME280;9983;51.114;13.788;2023-04-26T17:06:52;99477.50;;;10.52;43.80
19672;BME280;9983;51.114;13.788;2023-04-26T17:11:53;99484.88;;;10.50;43.56
19672;BME280;9983;51.114;13.788;2023-04-26T17:16:53;99490.75;;;10.85;43.75
19672;BME280;9983;51.114;13.788;2023-04-26T17:21:54;99486.81;;;10.64;44.20
19672;BME280;9983;51.114;13.788;2023-04-26T17:26:54;99489.41;;;11.12;43.38
19672;BME280;9983;51.114;13.788;2023-04-26T17:31:54;99499.13;;;10.82;43.81
19672;BME280;9983;51.114;13.788;2023-04-26T17:36:54;99495.00;;;11.02;43.39
19672;BME280;9983;51.114;13.788;2023-04-26T17:41:55;99496.72;;;10.95;43.82
19672;BME280;9983;51.114;13.788;2023-04-26T17:46:55;99495.44;;;10.83;43.32
19672;BME280;9983;51.114;13.788;2023-04-26T17:51:55;99500.22;;;10.64;44.92
19672;BME280;9983;51.114;13.788;2023-04-26T17:56:55;99500.66;;;10.45;45.07
19672;BME280;9983;51.114;13.788;2023-04-26T18:01:56;99497.19;;;10.29;46.17
19672;BME280;9983;51.114;13.788;2023-04-26T18:06:56;99508.75;;;10.21;46.54
19672;BME280;9983;51.114;13.788;2023-04-26T18:11:56;99509.47;;;10.62;46.09
19672;BME280;9983;51.114;13.788;2023-04-26T18:16:56;99506.22;;;10.36;46.45
19672;BME280;9983;51.114;13.788;2023-04-26T18:21:57;99512.81;;;9.93;47.93
19672;BME280;9983;51.114;13.788;2023-04-26T18:26:57;99518.44;;;10.22;47.27
19672;BME280;9983;51.114;13.788;2023-04-26T18:31:57;99518.03;;;10.49;46.67
19672;BME280;9983;51.114;13.788;2023-04-26T18:36:57;99522.31;;;10.67;46.86
19672;BME280;9983;51.114;13.788;2023-04-26T18:41:58;99521.91;;;10.86;46.28
19672;BME280;9983;51.114;13.788;2023-04-26T18:46:58;99524.16;;;10.27;47.17
19672;BME280;9983;51.114;13.788;2023-04-26T18:51:58;99531.44;;;10.49;47.29
19672;BME280;9983;51.114;13.788;2023-04-26T18:56:59;99534.28;;;10.48;48.39
19672;BME280;9983;51.114;13.788;2023-04-26T19:02:01;99532.78;;;10.53;47.38
19672;BME280;9983;51.114;13.788;2023-04-26T19:07:03;99544.13;;;10.63;48.64
19672;BME280;9983;51.114;13.788;2023-04-26T19:12:04;99541.06;;;10.75;49.41
19672;BME280;9983;51.114;13.788;2023-04-26T19:17:05;99542.91;;;10.11;50.84
19672;BME280;9983;51.114;13.788;2023-04-26T19:22:05;99548.91;;;10.37;51.77
19672;BME280;9983;51.114;13.788;2023-04-26T19:27:05;99554.63;;;10.02;52.39
19672;BME280;9983;51.114;13.788;2023-04-26T19:32:05;99559.34;;;9.75;53.32
19672;BME280;9983;51.114;13.788;2023-04-26T19:37:06;99565.03;;;9.72;55.33
19672;BME280;9983;51.114;13.788;2023-04-26T19:42:06;99569.69;;;9.54;53.80
19672;BME280;9983;51.114;13.788;2023-04-26T19:47:06;99571.34;;;9.47;53.36
19672;BME280;9983;51.114;13.788;2023-04-26T19:52:07;99574.97;;;9.13;54.91
19672;BME280;9983;51.114;13.788;2023-04-26T19:57:08;99577.97;;;9.02;55.18
19672;BME280;9983;51.114;13.788;2023-04-26T20:02:08;99572.84;;;8.75;57.37
19672;BME280;9983;51.114;13.788;2023-04-26T20:07:08;99564.69;;;8.43;57.95
19672;BME280;9983;51.114;13.788;2023-04-26T20:12:09;99567.59;;;8.31;58.42
19672;BME280;9983;51.114;13.788;2023-04-26T20:17:09;99569.41;;;7.61;61.35
19672;BME280;9983;51.114;13.788;2023-04-26T20:22:09;99560.19;;;7.38;62.69
19672;BME280;9983;51.114;13.788;2023-04-26T20:27:10;99565.00;;;7.17;65.23
19672;BME280;9983;51.114;13.788;2023-04-26T20:32:10;99569.81;;;7.04;66.24
19672;BME280;9983;51.114;13.788;2023-04-26T20:37:10;99565.19;;;6.78;66.61
19672;BME280;9983;51.114;13.788;2023-04-26T20:42:10;99559.78;;;6.43;68.60
19672;BME280;9983;51.114;13.788;2023-04-26T20:47:11;99560.56;;;6.53;68.21
19672;BME280;9983;51.114;13.788;2023-04-26T20:52:12;99569.25;;;6.55;68.81
19672;BME280;9983;51.114;13.788;2023-04-26T20:57:12;99565.88;;;6.26;69.99
19672;BME280;9983;51.114;13.788;2023-04-26T21:02:12;99564.66;;;6.11;69.95
19672;BME280;9983;51.114;13.788;2023-04-26T21:07:13;99565.00;;;5.69;72.33
19672;BME280;9983;51.114;13.788;2023-04-26T21:12:13;99573.38;;;5.84;71.53
19672;BME280;9983;51.114;13.788;2023-04-26T21:17:14;99572.41;;;5.75;71.67
19672;BME280;9983;51.114;13.788;2023-04-26T21:22:14;99562.03;;;5.91;71.63
19672;BME280;9983;51.114;13.788;2023-04-26T21:27:14;99575.88;;;5.85;71.32
19672;BME280;9983;51.114;13.788;2023-04-26T21:32:15;99574.47;;;5.81;71.14
19672;BME280;9983;51.114;13.788;2023-04-26T21:37:15;99576.75;;;5.57;72.81
19672;BME280;9983;51.114;13.788;2023-04-26T21:42:15;99585.06;;;4.94;75.61
19672;BME280;9983;51.114;13.788;2023-04-26T21:47:16;99588.13;;;4.90;76.47
19672;BME280;9983;51.114;13.788;2023-04-26T21:52:16;99594.22;;;4.71;77.22
19672;BME280;9983;51.114;13.788;2023-04-26T21:57:17;99598.91;;;4.48;78.51
19672;BME280;9983;51.114;13.788;2023-04-26T22:02:19;99598.59;;;3.91;82.82
19672;BME280;9983;51.114;13.788;2023-04-26T22:07:19;99606.19;;;4.56;78.69
19672;BME280;9983;51.114;13.788;2023-04-26T22:12:20;99608.81;;;4.77;77.36
19672;BME280;9983;51.114;13.788;2023-04-26T22:17:20;99611.75;;;4.02;80.84
19672;BME280;9983;51.114;13.788;2023-04-26T22:22:20;99612.03;;;3.99;80.22
19672;BME280;9983;51.114;13.788;2023-04-26T22:27:21;99619.94;;;4.10;80.00
19672;BME280;9983;51.114;13.788;2023-04-26T22:32:21;99617.97;;;3.70;82.70
19672;BME280;9983;51.114;13.788;2023-04-26T22:37:21;99619.09;;;4.09;80.93
19672;BME280;9983;51.114;13.788;2023-04-26T22:42:21;99620.56;;;4.23;79.88
19672;BME280;9983;51.114;13.788;2023-04-26T22:47:22;99629.75;;;3.77;81.57
19672;BME280;9983;51.114;13.788;2023-04-26T22:52:22;99638.34;;;3.38;84.04
19672;BME280;9983;51.114;13.788;2023-04-26T22:57:22;99635.03;;;3.25;84.91
19672;BME280;9983;51.114;13.788;2023-04-26T23:02:22;99638.56;;;3.46;83.32
19672;BME280;9983;51.114;13.788;2023-04-26T23:07:23;99630.94;;;3.85;82.40
19672;BME280;9983;51.114;13.788;2023-04-26T23:12:23;99641.38;;;3.65;82.61
19672;BME280;9983;51.114;13.788;2023-04-26T23:17:24;99637.97;;;3.74;82.35
19672;BME280;9983;51.114;13.788;2023-04-26T23:22:25;99641.78;;;3.18;84.42
19672;BME280;9983;51.114;13.788;2023-04-26T23:27:28;99644.38;;;3.29;84.77
19672;BME280;9983;51.114;13.788;2023-04-26T23:32:29;99651.72;;;3.36;83.88
19672;BME280;9983;51.114;13.788;2023-04-26T23:37:29;99644.50;;;3.38;83.96
19672;BME280;9983;51.114;13.788;2023-04-26T23:42:30;99643.94;;;3.13;85.39
19672;BME280;9983;51.114;13.788;2023-04-26T23:47:30;99637.22;;;3.09;85.12
19672;BME280;9983;51.114;13.788;2023-04-26T23:52:30;99636.28;;;2.98;84.53
19672;BME280;9983;51.114;13.788;2023-04-26T23:57:31;99632.50;;;3.12;85.08
